This is the latest recevied weather packets stored in our database for station/object EB2EMZ-15. If no packets are shown the sender has not sent any weather packets the latest 1 day(s).
| Time | Temp. | Humidity | Pressure | Rain* | Wind** | Luminosity | Snow |
|---|---|---|---|---|---|---|---|
| 1777974308 | 21.11° C | 52% | 993 hPa | 0 mm | 0 m/s | - | - |
| 1777974012 | 21.67° C | 52% | 993.1 hPa | 0 mm | 0 m/s | - | - |
| 1777973709 | 19.44° C | 56% | 993.1 hPa | 0 mm | 0 m/s | - | - |
| 1777973412 | 19.44° C | 56% | 993.1 hPa | 0 mm | 0 m/s | - | - |
| 1777973109 | 20° C | 54% | 993.1 hPa | 0 mm | 0 m/s | - | - |
| 1777972813 | 21.11° C | 54% | 993.2 hPa | 0 mm | 0 m/s | - | - |
| 1777972508 | 21.67° C | 54% | 993.1 hPa | 0 mm | 0 m/s | - | - |
| 1777972214 | 22.78° C | 54% | 993.1 hPa | 0 mm | 0 m/s | - | - |
| 1777971910 | 22.78° C | 59% | 993 hPa | 0 mm | 0 m/s | - | - |
| 1777971610 | 21.11° C | 64% | 993.2 hPa | 0 mm | 0 m/s | - | - |
| 1777971309 | 20.56° C | 67% | 993.2 hPa | 0 mm | 0 m/s | - | - |
| 1777971012 | 18.89° C | 72% | 992.9 hPa | 0 mm | 0 m/s | - | - |
| 1777970709 | 17.22° C | 74% | 993.1 hPa | 0 mm | 0 m/s | - | - |
| 1777970411 | 16.67° C | 74% | 993.3 hPa | 0 mm | 0 m/s | - | - |
| 1777970108 | 16.11° C | 75% | 993.4 hPa | 0 mm | 0 m/s | - | - |
| 1777969811 | 16.11° C | 76% | 993.3 hPa | 0 mm | 0 m/s | - | - |
| 1777969508 | 15.56° C | 76% | 993.3 hPa | 0 mm | 0 m/s | - | - |
| 1777969211 | 15° C | 77% | 993.3 hPa | 0 mm | 0 m/s | - | - |
| 1777968908 | 15° C | 77% | 993.5 hPa | 0 mm | 0 m/s | - | - |
| 1777968611 | 15° C | 77% | 993.4 hPa | 0 mm | 0 m/s | - | - |
| 1777968309 | 15° C | 77% | 993.3 hPa | 0 mm | 0 m/s | - | - |
| 1777968009 | 15° C | 77% | 993.3 hPa | 0 mm | 0 m/s | - | - |
| 1777967709 | 15° C | 77% | 993.3 hPa | 0 mm | 0 m/s | - | - |
| 1777967412 | 15° C | 77% | 993.3 hPa | 0 mm | 0 m/s | - | - |
| 1777967109 | 15° C | 78% | 993.3 hPa | 0 mm | 0 m/s | - | - |
* Rain latest hour (hover to see other rain measurements)
** Current wind speed in m/s (hover to see current wind gust speed)